Time;durP1;ratioP1;P1;durP2;ratioP2;P2;SDS_P1;SDS_P2;PMS_P1;PMS_P2;Temp;Humidity;BMP_temperature;BMP_pressure;BME280_temperature;BME280_humidity;BME280_pressure;Samples;Min_cycle;Max_cycle;Signal;HPM_P1;HPM_P2
2021/08/07 00:01:42;;;;;;;7.97;2.50;;;16.40;15.40;;;;;;5132220;27;20654;-79
2021/08/07 00:04:32;;;;;;;4.03;2.50;;;16.40;15.80;;;;;;5125331;27;20569;-81
2021/08/07 00:07:24;;;;;;;4.68;2.95;;;16.40;16.20;;;;;;5130945;27;20062;-82
2021/08/07 00:10:14;;;;;;;8.68;3.42;;;16.40;16.10;;;;;;5094524;27;20073;-81
2021/08/07 00:13:02;;;;;;;7.72;3.20;;;16.40;17.20;;;;;;5123409;27;20051;-81
2021/08/07 00:15:51;;;;;;;4.60;2.80;;;16.50;17.50;;;;;;5130323;27;20062;-81
2021/08/07 00:18:39;;;;;;;4.97;3.28;;;16.50;17.90;;;;;;5127004;27;20130;-81
2021/08/07 00:21:29;;;;;;;5.22;2.97;;;16.50;18.30;;;;;;5127597;27;20047;-81
2021/08/07 00:24:22;;;;;;;7.78;3.22;;;16.50;19.00;;;;;;5123817;27;20421;-81
2021/08/07 00:27:18;;;;;;;5.32;3.13;;;16.40;19.40;;;;;;5105528;27;20043;-83
2021/08/07 00:30:17;;;;;;;6.75;3.90;;;16.30;20.90;;;;;;5099849;27;20054;-81
2021/08/07 00:33:09;;;;;;;6.13;3.25;;;16.30;22.80;;;;;;5092880;27;20076;-82
2021/08/07 00:35:58;;;;;;;5.63;3.38;;;16.40;22.10;;;;;;5109105;27;20043;-81
2021/08/07 00:38:49;;;;;;;6.45;3.70;;;16.40;22.40;;;;;;5116307;27;20047;-81
2021/08/07 00:41:39;;;;;;;6.55;3.78;;;16.40;22.60;;;;;;5105978;27;20047;-82
2021/08/07 00:44:27;;;;;;;10.57;3.10;;;16.40;22.90;;;;;;5109949;27;20043;-80
2021/08/07 00:47:16;;;;;;;4.72;3.47;;;16.40;23.10;;;;;;5053541;27;20048;-82
2021/08/07 00:50:07;;;;;;;5.85;3.25;;;16.40;23.30;;;;;;5061289;28;20495;-82
2021/08/07 00:52:58;;;;;;;7.13;3.67;;;16.30;24.00;;;;;;5050265;28;20052;-82
2021/08/07 00:55:50;;;;;;;5.88;3.15;;;16.30;24.60;;;;;;5062629;28;20041;-82
2021/08/07 00:58:39;;;;;;;11.45;3.55;;;16.40;24.80;;;;;;5048274;28;20080;-81
2021/08/07 01:01:37;;;;;;;6.57;4.07;;;16.40;24.10;;;;;;5052887;28;20111;-80
2021/08/07 01:04:32;;;;;;;7.15;3.55;;;16.40;24.30;;;;;;5081423;28;20047;-81
2021/08/07 01:07:31;;;;;;;7.95;3.65;;;16.40;24.20;;;;;;5070332;28;20044;-81
2021/08/07 01:10:28;;;;;;;6.30;3.63;;;16.40;25.30;;;;;;5067111;28;20416;-80
2021/08/07 01:13:32;;;;;;;6.30;3.15;;;16.40;25.40;;;;;;5080422;28;20059;-81
2021/08/07 01:16:26;;;;;;;6.13;3.10;;;16.40;25.30;;;;;;5076657;28;20052;-81
2021/08/07 01:19:19;;;;;;;7.03;3.35;;;16.40;24.90;;;;;;5083459;28;20570;-81
2021/08/07 01:22:19;;;;;;;4.70;3.00;;;16.40;24.80;;;;;;5082127;28;20189;-80
2021/08/07 01:25:19;;;;;;;8.15;3.90;;;16.40;24.40;;;;;;5040326;28;20074;-80
2021/08/07 01:28:17;;;;;;;6.32;3.65;;;16.30;24.30;;;;;;5084265;27;20125;-80
2021/08/07 01:31:06;;;;;;;5.07;3.03;;;16.40;24.40;;;;;;5083861;28;20127;-80
2021/08/07 01:33:57;;;;;;;4.93;3.28;;;16.30;24.40;;;;;;5085202;28;20418;-81
2021/08/07 01:36:59;;;;;;;4.82;2.90;;;16.30;25.00;;;;;;5083670;28;20055;-82
2021/08/07 01:40:06;;;;;;;7.93;3.40;;;16.40;25.30;;;;;;5086382;28;20144;-82
2021/08/07 01:43:12;;;;;;;8.70;3.45;;;16.20;25.50;;;;;;5065103;28;20055;-82
2021/08/07 01:46:05;;;;;;;5.25;3.63;;;16.20;26.10;;;;;;5069562;28;20051;-82
2021/08/07 01:49:09;;;;;;;6.72;3.15;;;16.20;26.30;;;;;;5086824;28;20519;-82
2021/08/07 01:52:09;;;;;;;9.00;3.65;;;16.30;26.90;;;;;;5087382;28;20040;-82
2021/08/07 01:55:16;;;;;;;6.85;2.95;;;16.30;25.90;;;;;;5098380;28;20063;-82
2021/08/07 01:58:14;;;;;;;4.97;2.80;;;16.20;25.50;;;;;;5085568;28;20052;-82
2021/08/07 02:01:06;;;;;;;5.72;3.40;;;16.20;25.40;;;;;;5054807;27;20051;-82
2021/08/07 02:04:00;;;;;;;7.47;3.55;;;16.10;26.10;;;;;;5086429;27;20499;-82
2021/08/07 02:06:57;;;;;;;7.22;2.80;;;16.20;26.30;;;;;;5088731;28;20407;-82
2021/08/07 02:09:47;;;;;;;6.88;2.88;;;16.20;26.00;;;;;;5070893;28;20089;-82
2021/08/07 02:12:36;;;;;;;8.00;2.92;;;16.20;26.20;;;;;;5087325;28;20525;-82
2021/08/07 02:15:33;;;;;;;5.15;2.83;;;16.10;26.20;;;;;;5084493;28;20137;-82
2021/08/07 02:18:29;;;;;;;6.15;3.00;;;16.20;26.30;;;;;;5090544;28;20526;-81
2021/08/07 02:21:19;;;;;;;5.57;3.03;;;16.20;26.20;;;;;;5091213;28;20492;-82
2021/08/07 02:24:08;;;;;;;5.97;2.55;;;16.30;26.40;;;;;;5088081;28;20048;-82
2021/08/07 02:27:02;;;;;;;3.97;2.67;;;16.40;25.30;;;;;;5082382;28;20131;-82
2021/08/07 02:29:52;;;;;;;5.65;2.78;;;16.30;24.90;;;;;;5085649;28;20140;-82
2021/08/07 02:32:43;;;;;;;5.28;2.78;;;16.30;25.40;;;;;;5086875;28;20177;-82
2021/08/07 02:35:36;;;;;;;3.40;2.28;;;16.30;26.30;;;;;;5086181;28;20044;-81
2021/08/07 02:38:27;;;;;;;7.78;3.35;;;16.20;26.30;;;;;;5087827;28;20130;-81
2021/08/07 02:41:16;;;;;;;7.10;3.25;;;16.10;26.20;;;;;;5083900;28;20059;-81
2021/08/07 02:44:08;;;;;;;4.53;3.00;;;16.20;27.30;;;;;;5084443;28;20040;-81
2021/08/07 02:46:57;;;;;;;8.75;3.25;;;16.10;26.90;;;;;;5083920;28;20134;-81
2021/08/07 02:49:47;;;;;;;6.70;3.42;;;16.10;27.20;;;;;;5084668;28;20052;-81
2021/08/07 02:52:37;;;;;;;6.07;3.55;;;16.20;27.30;;;;;;5081771;27;20048;-81
2021/08/07 02:55:30;;;;;;;5.68;3.40;;;16.20;28.00;;;;;;5079621;28;20051;-81
2021/08/07 02:58:26;;;;;;;7.65;3.67;;;16.10;28.20;;;;;;5085546;27;20051;-82
2021/08/07 03:01:16;;;;;;;6.13;3.00;;;16.10;28.20;;;;;;5088939;28;20039;-81
2021/08/07 03:04:10;;;;;;;7.15;3.38;;;16.00;29.40;;;;;;5085514;28;20102;-81
2021/08/07 03:06:59;;;;;;;8.05;3.47;;;16.00;28.80;;;;;;5082610;28;20052;-81
2021/08/07 03:09:49;;;;;;;5.22;3.65;;;16.10;28.60;;;;;;5085290;28;20063;-81
2021/08/07 03:12:38;;;;;;;7.35;3.40;;;16.10;29.10;;;;;;5085922;28;20102;-81
2021/08/07 03:15:27;;;;;;;4.70;3.25;;;16.20;28.60;;;;;;5079035;28;20472;-80
2021/08/07 03:18:16;;;;;;;4.78;3.50;;;16.20;27.90;;;;;;5086852;28;20129;-80
2021/08/07 03:21:05;;;;;;;5.55;3.17;;;16.10;28.10;;;;;;5082590;28;20072;-81
2021/08/07 03:24:02;;;;;;;3.85;2.63;;;16.20;28.00;;;;;;5085444;28;20491;-81
2021/08/07 03:26:56;;;;;;;4.45;3.15;;;16.20;28.00;;;;;;5084006;28;20059;-81
2021/08/07 03:29:44;;;;;;;5.03;3.45;;;16.10;28.10;;;;;;5085162;28;20870;-81
2021/08/07 03:32:36;;;;;;;5.85;2.80;;;16.10;28.20;;;;;;5083326;28;20415;-81
2021/08/07 03:35:27;;;;;;;8.32;3.50;;;16.10;28.10;;;;;;5082610;28;20044;-81
2021/08/07 03:38:16;;;;;;;8.52;3.33;;;16.00;28.70;;;;;;5087380;28;20044;-81
2021/08/07 03:41:05;;;;;;;4.10;2.55;;;16.00;29.50;;;;;;5083171;28;20055;-81
2021/08/07 03:43:55;;;;;;;5.88;2.60;;;16.00;29.10;;;;;;5086339;28;20048;-81
2021/08/07 03:46:45;;;;;;;7.25;2.72;;;16.00;28.80;;;;;;5080317;28;20127;-81
2021/08/07 03:49:35;;;;;;;5.18;2.90;;;15.90;29.30;;;;;;5084944;28;20046;-80
2021/08/07 03:52:25;;;;;;;5.93;3.25;;;16.00;29.60;;;;;;5087345;28;20047;-81
2021/08/07 03:55:14;;;;;;;3.53;2.42;;;15.90;29.60;;;;;;5080885;28;20083;-80
2021/08/07 03:58:02;;;;;;;5.35;2.88;;;16.00;29.50;;;;;;5084885;28;20068;-81
2021/08/07 04:01:03;;;;;;;5.72;2.80;;;16.00;29.20;;;;;;5081350;28;20181;-81
2021/08/07 04:03:54;;;;;;;4.25;3.03;;;15.90;29.10;;;;;;5081240;28;20056;-81
2021/08/07 04:07:04;;;;;;;4.80;2.53;;;16.00;28.80;;;;;;5083896;28;20044;-81
2021/08/07 04:10:03;;;;;;;6.50;3.10;;;15.90;28.90;;;;;;5099347;28;20456;-80
2021/08/07 04:12:51;;;;;;;10.48;2.88;;;16.00;28.60;;;;;;5083910;28;20040;-80
2021/08/07 04:15:40;;;;;;;4.38;2.90;;;16.00;28.70;;;;;;5079473;28;20063;-81
2021/08/07 04:18:32;;;;;;;4.90;2.88;;;16.00;29.00;;;;;;5085694;28;20047;-81
2021/08/07 04:21:20;;;;;;;4.95;2.88;;;16.00;29.50;;;;;;5078411;28;20051;-81
2021/08/07 04:24:09;;;;;;;6.78;3.13;;;16.00;29.50;;;;;;5088011;28;20052;-80
2021/08/07 04:26:59;;;;;;;5.32;2.80;;;16.00;28.90;;;;;;5078251;28;20035;-81
2021/08/07 04:29:48;;;;;;;7.35;3.50;;;16.10;28.50;;;;;;5068716;28;20044;-80
2021/08/07 04:32:37;;;;;;;7.05;3.22;;;16.10;27.90;;;;;;5083912;28;20052;-80
2021/08/07 04:35:30;;;;;;;4.82;2.65;;;16.00;28.70;;;;;;5080893;28;20036;-80
2021/08/07 04:38:20;;;;;;;5.00;3.00;;;16.10;29.40;;;;;;5085610;28;20047;-81
2021/08/07 04:41:10;;;;;;;4.35;2.95;;;16.10;28.70;;;;;;5079630;28;20048;-81
2021/08/07 04:44:00;;;;;;;5.55;3.22;;;16.20;28.30;;;;;;5083947;28;20044;-81
2021/08/07 04:46:49;;;;;;;4.95;2.95;;;16.10;28.30;;;;;;5079912;28;20944;-80
2021/08/07 04:49:37;;;;;;;6.35;3.20;;;16.20;27.80;;;;;;5083101;28;20063;-81
2021/08/07 04:52:27;;;;;;;7.40;3.08;;;16.20;27.10;;;;;;5085145;28;20495;-81
2021/08/07 04:55:17;;;;;;;6.53;3.03;;;16.20;27.50;;;;;;5079155;28;20059;-81
2021/08/07 04:58:06;;;;;;;5.15;3.03;;;17.20;22.00;;;;;;5084342;28;20128;-80
2021/08/07 05:00:56;;;;;;;9.68;3.15;;;18.20;13.40;;;;;;5066540;28;20384;-80
2021/08/07 05:03:45;;;;;;;4.75;3.00;;;18.20;9.20;;;;;;5082539;28;20516;-81
2021/08/07 05:06:37;;;;;;;4.07;2.60;;;17.50;13.60;;;;;;5079804;28;20055;-81
2021/08/07 05:09:27;;;;;;;5.93;2.63;;;17.40;16.20;;;;;;5081957;28;20442;-81
2021/08/07 05:12:27;;;;;;;5.38;3.20;;;16.90;17.50;;;;;;5082255;28;20064;-82
2021/08/07 05:15:16;;;;;;;5.65;2.67;;;16.90;19.70;;;;;;5082123;28;20055;-82
2021/08/07 05:18:05;;;;;;;4.18;2.95;;;16.80;19.20;;;;;;5083952;28;20125;-81
2021/08/07 05:20:55;;;;;;;6.75;3.50;;;16.70;20.70;;;;;;5068992;28;20055;-82
2021/08/07 05:23:43;;;;;;;5.28;3.20;;;16.70;22.30;;;;;;5084437;28;20636;-82
2021/08/07 05:26:33;;;;;;;7.28;3.50;;;16.60;23.60;;;;;;5079783;28;20040;-81
2021/08/07 05:29:22;;;;;;;5.68;2.88;;;16.50;24.50;;;;;;5081640;28;20055;-81
2021/08/07 05:32:10;;;;;;;7.13;2.80;;;16.60;24.60;;;;;;5082192;28;20146;-82
2021/08/07 05:34:59;;;;;;;5.47;3.08;;;16.60;23.60;;;;;;5073916;28;20052;-82
2021/08/07 05:37:48;;;;;;;4.35;2.88;;;16.60;23.00;;;;;;5072764;28;20044;-81
2021/08/07 05:40:36;;;;;;;5.80;2.72;;;16.70;23.90;;;;;;5080537;28;20051;-81
2021/08/07 05:43:26;;;;;;;8.32;3.35;;;16.60;22.80;;;;;;5080868;28;20089;-82
2021/08/07 05:46:15;;;;;;;5.95;2.70;;;16.70;23.20;;;;;;5063980;28;20049;-81
2021/08/07 05:49:04;;;;;;;6.43;2.85;;;16.80;21.90;;;;;;5081497;28;20613;-81
2021/08/07 05:51:54;;;;;;;3.80;2.50;;;17.60;17.50;;;;;;5069299;28;20053;-81
2021/08/07 05:54:44;;;;;;;3.85;2.40;;;18.30;9.80;;;;;;5057544;28;20056;-80
2021/08/07 05:57:34;;;;;;;4.28;2.25;;;18.70;9.10;;;;;;5062143;28;20040;-80
2021/08/07 06:00:25;;;;;;;5.97;2.30;;;18.60;7.50;;;;;;5063786;28;20049;-82
2021/08/07 06:03:16;;;;;;;4.18;2.10;;;18.60;6.90;;;;;;5080223;28;20131;-80
2021/08/07 06:06:10;;;;;;;7.28;2.33;;;18.70;6.30;;;;;;5074773;28;20040;-81
2021/08/07 06:08:59;;;;;;;6.07;2.10;;;18.30;8.30;;;;;;5077435;28;20079;-82
2021/08/07 06:11:48;;;;;;;4.03;2.25;;;18.10;7.70;;;;;;5082299;28;20173;-81
2021/08/07 06:14:38;;;;;;;4.70;1.92;;;18.10;9.00;;;;;;5081466;28;20613;-82
2021/08/07 06:17:28;;;;;;;6.57;2.58;;;17.90;9.50;;;;;;5068266;28;20055;-82
2021/08/07 06:20:16;;;;;;;3.65;2.00;;;17.80;11.60;;;;;;5080820;28;20052;-80
2021/08/07 06:23:10;;;;;;;3.63;2.08;;;17.80;11.10;;;;;;5083479;28;20658;-82
2021/08/07 06:25:59;;;;;;;5.20;2.67;;;18.20;11.00;;;;;;5084957;28;20040;-82
2021/08/07 06:28:49;;;;;;;4.80;2.40;;;18.40;9.80;;;;;;5086651;28;20051;-82
2021/08/07 06:31:38;;;;;;;4.82;2.10;;;18.50;10.30;;;;;;5086673;28;20093;-82
2021/08/07 06:34:30;;;;;;;3.53;1.83;;;18.60;9.20;;;;;;5082714;28;20044;-82
2021/08/07 06:37:19;;;;;;;7.80;2.00;;;18.50;7.80;;;;;;5087193;28;20039;-82
2021/08/07 06:40:09;;;;;;;3.65;1.65;;;18.90;6.40;;;;;;5087270;28;20416;-82
2021/08/07 06:42:57;;;;;;;3.20;1.77;;;18.70;5.40;;;;;;5084924;28;20047;-82
2021/08/07 06:46:01;;;;;;;7.40;1.90;;;18.90;5.40;;;;;;5080656;28;20116;-82
2021/08/07 06:48:56;;;;;;;5.03;2.03;;;19.40;4.70;;;;;;5071593;28;20036;-83
2021/08/07 06:51:46;;;;;;;3.08;1.73;;;19.40;3.10;;;;;;5084603;28;20127;-81
2021/08/07 06:54:35;;;;;;;4.22;2.05;;;19.30;2.10;;;;;;5086550;28;20193;-82
2021/08/07 06:57:25;;;;;;;4.18;1.98;;;19.80;1.60;;;;;;5072377;28;20044;-82
2021/08/07 07:00:15;;;;;;;3.83;2.00;;;19.90;1.00;;;;;;5082750;28;20178;-82
2021/08/07 07:03:04;;;;;;;5.97;1.83;;;19.70;1.00;;;;;;5068077;28;20059;-83
2021/08/07 07:05:54;;;;;;;2.58;2.03;;;19.60;1.00;;;;;;5061517;28;20503;-83
2021/08/07 07:08:44;;;;;;;4.82;1.98;;;20.10;1.00;;;;;;5084186;28;20117;-83
2021/08/07 07:11:39;;;;;;;4.50;1.90;;;20.30;1.00;;;;;;5084790;28;20071;-82
2021/08/07 07:14:29;;;;;;;2.75;2.03;;;20.10;1.00;;;;;;5092217;28;20625;-83
2021/08/07 07:17:18;;;;;;;4.78;2.17;;;20.10;1.00;;;;;;5070615;28;20068;-82
2021/08/07 07:20:12;;;;;;;4.53;1.88;;;20.60;1.00;;;;;;5087566;28;20882;-83
2021/08/07 07:23:02;;;;;;;6.90;2.28;;;21.10;1.00;;;;;;5069493;28;20099;-83
2021/08/07 07:25:55;;;;;;;5.65;1.95;;;21.50;1.00;;;;;;5064416;28;20430;-82
2021/08/07 07:28:44;;;;;;;4.15;1.90;;;20.90;1.00;;;;;;5085327;28;20052;-83
2021/08/07 07:31:34;;;;;;;3.70;1.50;;;20.70;1.00;;;;;;5063477;28;20525;-83
2021/08/07 07:34:24;;;;;;;4.15;1.50;;;20.80;1.00;;;;;;5074230;27;20392;-82
2021/08/07 07:37:13;;;;;;;2.40;1.52;;;20.60;1.00;;;;;;5070921;28;20091;-83
2021/08/07 07:40:08;;;;;;;5.30;1.60;;;20.60;1.00;;;;;;5084879;28;20058;-84
2021/08/07 07:42:59;;;;;;;;;;;20.40;1.00;;;;;;5069721;28;20413;-84
2021/08/07 07:45:51;;;;;;;6.35;1.60;;;20.60;1.00;;;;;;5090310;28;19924;-84
2021/08/07 07:48:46;;;;;;;2.38;1.27;;;20.40;1.00;;;;;;5071365;28;20037;-84
2021/08/07 07:51:37;;;;;;;4.25;1.40;;;20.30;1.00;;;;;;5065955;28;20048;-83
2021/08/07 07:54:28;;;;;;;4.78;1.85;;;20.30;1.00;;;;;;5055601;28;20106;-83
2021/08/07 07:57:21;;;;;;;4.15;1.70;;;20.10;1.00;;;;;;5062812;28;20589;-83
2021/08/07 08:00:13;;;;;;;5.97;1.73;;;20.10;1.00;;;;;;5062400;28;20052;-84
2021/08/07 08:03:13;;;;;;;6.72;2.33;;;20.10;1.00;;;;;;5053379;28;20079;-84
2021/08/07 08:06:06;;;;;;;3.97;1.55;;;20.30;1.00;;;;;;5058328;28;20041;-83
2021/08/07 08:08:59;;;;;;;2.22;1.60;;;20.70;1.00;;;;;;5071634;28;20051;-83
2021/08/07 08:11:48;;;;;;;3.85;1.35;;;21.20;1.00;;;;;;5070466;28;20121;-84
2021/08/07 08:14:38;;;;;;;4.68;1.67;;;21.80;1.00;;;;;;5069823;28;20043;-83
2021/08/07 08:17:33;;;;;;;3.60;1.38;;;21.70;1.00;;;;;;5082239;28;20510;-84
2021/08/07 08:20:25;;;;;;;5.82;1.70;;;21.80;1.00;;;;;;5069367;28;20043;-85
2021/08/07 08:23:15;;;;;;;4.63;1.30;;;21.90;1.00;;;;;;5074937;27;20506;-84
2021/08/07 08:26:10;;;;;;;5.72;1.38;;;21.90;1.00;;;;;;5073499;27;20039;-82
2021/08/07 08:28:59;;;;;;;4.22;1.70;;;22.00;1.00;;;;;;5081414;27;20111;-83
2021/08/07 08:31:48;;;;;;;4.97;1.55;;;21.80;1.00;;;;;;5095441;27;20252;-85
2021/08/07 08:34:38;;;;;;;5.60;1.35;;;21.60;1.00;;;;;;5086607;27;20498;-83
2021/08/07 08:37:28;;;;;;;2.95;1.27;;;21.70;1.00;;;;;;5076441;28;20054;-84
2021/08/07 08:40:17;;;;;;;4.80;1.30;;;21.80;1.00;;;;;;5089643;28;20132;-84
2021/08/07 08:43:06;;;;;;;2.88;1.50;;;21.90;1.00;;;;;;5076441;28;20048;-85
2021/08/07 08:45:56;;;;;;;6.20;1.30;;;22.20;1.00;;;;;;5071766;28;20122;-84
2021/08/07 08:48:46;;;;;;;2.75;1.20;;;22.10;1.00;;;;;;5088857;28;20130;-86
2021/08/07 08:51:40;;;;;;;4.40;1.27;;;22.50;1.00;;;;;;5075294;28;20085;-85
2021/08/07 08:54:29;;;;;;;3.55;1.30;;;22.50;1.00;;;;;;5103416;28;20281;-84
2021/08/07 08:57:19;;;;;;;2.88;1.40;;;22.60;1.00;;;;;;5074050;28;20122;-85
2021/08/07 09:00:10;;;;;;;3.25;1.70;;;22.60;1.00;;;;;;5089628;28;20549;-84
2021/08/07 09:03:01;;;;;;;2.50;1.23;;;22.40;1.00;;;;;;5089389;28;20783;-85
2021/08/07 09:05:50;;;;;;;2.75;1.35;;;22.90;1.00;;;;;;5098076;28;20044;-85
2021/08/07 09:08:40;;;;;;;2.83;1.40;;;22.60;1.00;;;;;;5074440;28;20062;-85
2021/08/07 09:11:29;;;;;;;3.63;1.40;;;22.90;1.00;;;;;;5073449;28;20509;-85
2021/08/07 09:14:24;;;;;;;3.72;1.38;;;22.40;1.00;;;;;;5089481;28;20047;-84
2021/08/07 09:17:19;;;;;;;3.03;1.10;;;22.30;1.00;;;;;;5086275;28;20044;-85
2021/08/07 09:20:13;;;;;;;4.68;1.30;;;22.20;1.00;;;;;;5076376;28;20050;-86
2021/08/07 09:23:02;;;;;;;3.30;1.50;;;22.20;1.00;;;;;;5087350;28;20134;-85
2021/08/07 09:25:52;;;;;;;5.28;1.45;;;22.30;1.00;;;;;;5075541;28;20134;-85
2021/08/07 09:28:45;;;;;;;2.97;1.20;;;22.40;1.00;;;;;;5078208;28;20340;-84
2021/08/07 09:31:38;;;;;;;3.25;1.23;;;22.60;1.00;;;;;;5080630;28;20044;-86
2021/08/07 09:34:27;;;;;;;5.55;1.52;;;22.40;1.00;;;;;;5077204;28;20073;-86
2021/08/07 09:37:19;;;;;;;1.63;1.15;;;22.50;1.00;;;;;;5077227;27;20051;-86
2021/08/07 09:40:11;;;;;;;2.15;1.30;;;22.80;1.00;;;;;;5089040;28;20055;-86
2021/08/07 09:43:02;;;;;;;2.35;1.30;;;22.70;1.00;;;;;;5077617;28;20174;-86
2021/08/07 09:46:03;;;;;;;3.70;1.40;;;22.70;1.00;;;;;;5076326;28;20524;-86
2021/08/07 09:48:54;;;;;;;3.17;1.48;;;22.80;1.00;;;;;;5077463;28;20043;-86
2021/08/07 09:51:54;;;;;;;4.93;1.35;;;22.80;1.00;;;;;;5078660;28;20082;-87
2021/08/07 09:54:45;;;;;;;3.50;1.63;;;22.60;1.00;;;;;;5069482;28;20405;-87
2021/08/07 09:57:35;;;;;;;2.95;1.27;;;22.50;1.00;;;;;;5090614;27;20047;-86
2021/08/07 10:00:39;;;;;;;2.08;1.55;;;22.50;1.00;;;;;;5097678;27;20044;-86
2021/08/07 10:03:32;;;;;;;1.95;1.30;;;22.50;1.00;;;;;;5108240;27;20050;-86
2021/08/07 10:06:24;;;;;;;3.58;1.40;;;22.30;1.00;;;;;;5079148;27;20134;-86
2021/08/07 10:09:32;;;;;;;4.85;1.50;;;22.20;1.00;;;;;;5096765;27;20193;-85
2021/08/07 10:12:24;;;;;;;5.53;1.40;;;21.90;1.00;;;;;;5093602;27;20062;-85
2021/08/07 10:15:17;;;;;;;;;;;21.70;1.00;;;;;;5106963;27;20070;-85
2021/08/07 10:18:10;;;;;;;2.38;1.50;;;21.60;1.00;;;;;;5098672;27;19962;-85
2021/08/07 10:21:03;;;;;;;3.85;1.60;;;21.10;1.00;;;;;;5085578;27;20043;-85
2021/08/07 10:23:54;;;;;;;4.55;2.00;;;20.70;1.00;;;;;;5100628;27;20066;-84
2021/08/07 10:26:46;;;;;;;3.35;1.80;;;20.90;6.30;;;;;;5091674;27;20055;-84
2021/08/07 10:29:36;;;;;;;4.28;1.30;;;20.60;4.80;;;;;;5082970;27;20044;-84
2021/08/07 10:32:25;;;;;;;4.88;2.13;;;20.40;3.80;;;;;;5097794;27;20087;-84
2021/08/07 10:35:16;;;;;;;5.82;2.03;;;20.30;7.30;;;;;;5088255;27;20054;-84
2021/08/07 10:38:06;;;;;;;3.97;1.77;;;20.50;11.80;;;;;;5077666;27;20043;-85
2021/08/07 10:40:55;;;;;;;4.35;1.92;;;20.40;7.30;;;;;;5113974;27;20054;-84
2021/08/07 10:43:44;;;;;;;6.00;2.10;;;20.30;12.30;;;;;;5094787;27;20051;-84
2021/08/07 10:46:33;;;;;;;4.95;2.13;;;20.40;14.70;;;;;;5091814;27;20188;-82
2021/08/07 10:49:34;;;;;;;5.15;2.00;;;19.90;18.00;;;;;;5094823;27;20047;-83
2021/08/07 10:52:37;;;;;;;3.00;1.83;;;19.40;24.40;;;;;;5095099;27;20407;-82
2021/08/07 10:55:48;;;;;;;4.90;2.00;;;19.30;26.50;;;;;;5077615;27;20142;-81
2021/08/07 10:58:42;;;;;;;7.10;2.35;;;19.20;28.40;;;;;;5094202;27;20383;-82
2021/08/07 11:01:32;;;;;;;5.33;2.60;;;19.00;33.00;;;;;;5093816;27;20051;-82
2021/08/07 11:04:30;;;;;;;4.65;2.30;;;19.00;36.40;;;;;;5111069;27;20289;-83
2021/08/07 11:07:20;;;;;;;4.25;2.25;;;18.80;36.30;;;;;;5090113;27;20055;-82
2021/08/07 11:10:13;;;;;;;6.50;2.33;;;18.70;36.20;;;;;;5095396;27;20035;-83
2021/08/07 11:13:23;;;;;;;13.10;2.42;;;18.80;35.20;;;;;;5118841;27;20651;-83
2021/08/07 11:16:18;;;;;;;5.72;2.40;;;18.90;38.00;;;;;;5107256;27;20054;-81
2021/08/07 11:19:44;;;;;;;6.75;2.42;;;18.70;36.20;;;;;;5115008;27;20043;-83
2021/08/07 11:23:10;;;;;;;4.75;2.35;;;18.50;36.00;;;;;;5107119;27;20051;-83
2021/08/07 11:26:04;;;;;;;5.05;2.28;;;18.50;40.90;;;;;;5107900;27;20054;-83
2021/08/07 11:29:07;;;;;;;4.68;2.45;;;18.50;38.80;;;;;;5096520;27;20043;-83
2021/08/07 11:32:17;;;;;;;3.92;1.85;;;18.40;35.40;;;;;;5114955;27;20434;-83
2021/08/07 11:35:05;;;;;;;3.38;1.95;;;18.30;35.80;;;;;;5092758;27;20047;-83
2021/08/07 11:38:13;;;;;;;6.30;2.67;;;18.20;40.00;;;;;;5106921;27;20043;-83
2021/08/07 11:41:05;;;;;;;2.88;2.30;;;18.20;41.10;;;;;;5106779;27;20044;-82
2021/08/07 11:43:57;;;;;;;2.97;2.17;;;18.20;41.80;;;;;;5081935;27;20570;-82
2021/08/07 11:46:45;;;;;;;3.38;2.30;;;18.20;40.90;;;;;;5108103;27;20510;-83
2021/08/07 11:49:35;;;;;;;4.05;2.40;;;18.10;40.40;;;;;;5117338;27;20517;-82
2021/08/07 11:52:29;;;;;;;4.65;2.90;;;18.10;45.00;;;;;;5094175;27;20437;-82
2021/08/07 11:55:18;;;;;;;5.03;2.95;;;18.30;45.20;;;;;;5104416;27;20043;-82
2021/08/07 11:58:10;;;;;;;4.43;2.67;;;18.10;44.10;;;;;;5101368;27;20043;-82
2021/08/07 12:01:00;;;;;;;3.75;2.55;;;18.30;48.40;;;;;;5109129;27;20054;-81
2021/08/07 12:03:51;;;;;;;6.03;2.97;;;18.20;49.20;;;;;;5073295;28;20494;-82
2021/08/07 12:06:41;;;;;;;5.80;2.67;;;18.40;50.40;;;;;;5085397;28;20044;-82
2021/08/07 12:09:30;;;;;;;7.07;3.35;;;18.30;48.60;;;;;;5102478;28;20074;-82
2021/08/07 12:12:18;;;;;;;6.38;2.80;;;18.30;49.50;;;;;;5105286;28;20051;-82
2021/08/07 12:15:09;;;;;;;7.13;3.03;;;18.30;50.80;;;;;;5101763;28;20040;-81
2021/08/07 12:18:00;;;;;;;4.32;2.90;;;18.20;50.80;;;;;;5106094;28;20047;-82
2021/08/07 12:20:49;;;;;;;6.85;3.00;;;18.20;49.40;;;;;;5088435;28;20040;-82
2021/08/07 12:23:46;;;;;;;8.57;2.83;;;18.30;52.70;;;;;;5103637;28;20044;-82
2021/08/07 12:26:41;;;;;;;6.63;3.05;;;18.30;51.00;;;;;;5100069;28;20050;-81
2021/08/07 12:29:31;;;;;;;6.35;3.13;;;18.20;49.50;;;;;;5109610;27;20483;-82
2021/08/07 12:32:21;;;;;;;4.70;2.88;;;18.30;51.30;;;;;;5107613;27;20047;-82
2021/08/07 12:35:10;;;;;;;7.25;3.05;;;18.30;53.30;;;;;;5106965;27;20384;-82
2021/08/07 12:37:58;;;;;;;6.18;2.67;;;18.20;54.70;;;;;;5115506;27;20063;-82
2021/08/07 12:40:49;;;;;;;3.00;2.60;;;18.20;50.90;;;;;;5108655;27;20126;-81
2021/08/07 12:43:37;;;;;;;4.75;2.60;;;18.40;51.70;;;;;;5113086;27;20094;-81
2021/08/07 12:46:26;;;;;;;6.28;2.72;;;18.30;50.50;;;;;;5098089;27;20044;-80
2021/08/07 12:49:42;;;;;;;6.18;3.67;;;18.20;51.00;;;;;;5097432;27;20391;-80
2021/08/07 12:52:31;;;;;;;4.43;2.88;;;18.20;52.50;;;;;;5107830;27;20063;-79
2021/08/07 12:55:20;;;;;;;4.95;2.75;;;18.10;52.70;;;;;;5108412;27;20075;-84
2021/08/07 12:58:16;;;;;;;7.35;3.10;;;18.10;52.60;;;;;;5084468;27;20498;-80
2021/08/07 13:01:13;;;;;;;7.57;2.70;;;18.10;52.60;;;;;;5087839;27;20442;-81
2021/08/07 13:04:04;;;;;;;4.63;2.80;;;17.90;51.00;;;;;;5108557;27;20047;-80
2021/08/07 13:07:01;;;;;;;5.20;2.60;;;18.00;50.80;;;;;;5104765;27;20128;-80
2021/08/07 13:09:49;;;;;;;6.28;3.10;;;17.90;49.50;;;;;;5091696;28;20039;-80
2021/08/07 13:12:43;;;;;;;3.63;2.20;;;17.80;49.00;;;;;;5092740;28;20043;-80
2021/08/07 13:15:32;;;;;;;4.43;2.27;;;17.70;48.10;;;;;;5111841;27;20434;-80
2021/08/07 13:18:20;;;;;;;4.05;2.40;;;17.70;50.70;;;;;;5106056;27;20514;-80
2021/08/07 13:21:25;;;;;;;2.97;2.28;;;17.60;49.50;;;;;;5091529;28;20093;-79
2021/08/07 13:24:29;;;;;;;5.32;2.58;;;17.60;51.50;;;;;;5093375;28;20174;-79
2021/08/07 13:27:18;;;;;;;3.33;2.20;;;17.50;51.40;;;;;;5083682;28;20043;-79
2021/08/07 13:30:09;;;;;;;3.42;2.20;;;17.40;49.70;;;;;;5098880;28;20064;-79
2021/08/07 13:33:02;;;;;;;4.55;2.38;;;17.30;50.60;;;;;;5114594;27;20121;-79
2021/08/07 13:35:50;;;;;;;5.05;2.30;;;17.30;52.70;;;;;;5111244;27;20483;-79
2021/08/07 13:38:38;;;;;;;4.10;2.33;;;17.30;55.00;;;;;;5107163;27;20043;-78
2021/08/07 13:41:28;;;;;;;4.47;2.25;;;17.30;56.00;;;;;;5113247;27;20047;-78
2021/08/07 13:44:16;;;;;;;4.05;2.40;;;17.20;56.40;;;;;;5112039;27;20513;-78
2021/08/07 13:47:06;;;;;;;6.10;2.45;;;17.10;56.70;;;;;;5110730;27;20035;-79
2021/08/07 13:49:56;;;;;;;3.53;2.10;;;17.10;56.00;;;;;;5111053;27;20061;-78
2021/08/07 13:52:45;;;;;;;3.80;2.00;;;17.00;52.90;;;;;;5096386;28;20066;-77
2021/08/07 13:55:34;;;;;;;3.53;1.40;;;17.00;51.60;;;;;;5120430;27;20128;-78
2021/08/07 13:58:23;;;;;;;2.33;1.27;;;16.90;46.50;;;;;;5113617;27;20070;-79
2021/08/07 14:01:12;;;;;;;1.95;1.20;;;16.90;45.70;;;;;;5109863;27;20116;-80
2021/08/07 14:04:01;;;;;;;3.13;1.50;;;16.80;48.10;;;;;;5077771;27;20050;-79
2021/08/07 14:06:50;;;;;;;3.92;1.60;;;16.70;49.40;;;;;;5110412;27;20828;-81
2021/08/07 14:09:38;;;;;;;3.15;1.92;;;16.80;52.60;;;;;;5089596;27;20098;-79
2021/08/07 14:12:27;;;;;;;4.55;1.70;;;16.80;53.00;;;;;;5106874;27;20062;-79
2021/08/07 14:15:16;;;;;;;5.40;1.95;;;16.80;52.40;;;;;;5099466;28;20066;-81
2021/08/07 14:18:05;;;;;;;4.80;2.42;;;16.90;55.40;;;;;;5104973;27;20134;-80
2021/08/07 14:20:53;;;;;;;4.68;2.15;;;16.90;54.70;;;;;;5109460;27;20036;-80
2021/08/07 14:23:41;;;;;;;4.13;2.00;;;16.90;55.50;;;;;;5107931;27;20098;-80
2021/08/07 14:26:30;;;;;;;5.38;2.30;;;17.00;55.70;;;;;;5084024;27;20052;-79
2021/08/07 14:29:19;;;;;;;4.05;2.03;;;17.00;53.40;;;;;;5096049;27;20123;-81
2021/08/07 14:32:09;;;;;;;2.40;1.50;;;17.00;50.80;;;;;;5108563;27;20139;-79
2021/08/07 14:34:57;;;;;;;2.03;1.50;;;16.90;49.80;;;;;;5093843;27;20518;-79
2021/08/07 14:37:46;;;;;;;3.47;1.98;;;16.90;50.90;;;;;;5114066;27;20046;-80
2021/08/07 14:40:35;;;;;;;3.58;1.80;;;16.80;50.10;;;;;;5111802;27;20072;-79
2021/08/07 14:43:23;;;;;;;4.40;2.03;;;16.80;51.80;;;;;;5109140;27;20043;-79
2021/08/07 14:46:16;;;;;;;4.30;2.17;;;16.70;53.10;;;;;;5093759;27;20039;-79
2021/08/07 14:49:06;;;;;;;2.78;2.03;;;16.70;54.60;;;;;;5114203;27;20573;-79
2021/08/07 14:51:56;;;;;;;2.25;1.80;;;16.50;54.00;;;;;;5113016;27;20519;-79
2021/08/07 14:54:45;;;;;;;3.35;2.00;;;16.50;53.40;;;;;;5113153;27;20074;-79
2021/08/07 14:57:34;;;;;;;5.22;2.00;;;16.60;54.30;;;;;;5109588;27;20067;-80
2021/08/07 15:00:22;;;;;;;3.80;1.98;;;16.60;53.00;;;;;;5111355;27;20055;-79